createdAt,value
2022-11-12T00:00:55.203Z,15.75
2022-11-12T00:03:22.949Z,7.93
2022-11-12T00:05:51.389Z,8.93
2022-11-12T00:08:19.047Z,8.27
2022-11-12T00:10:46.766Z,11.15
2022-11-12T00:13:14.249Z,8.20
2022-11-12T00:15:41.862Z,6.60
2022-11-12T00:18:10.777Z,6.60
2022-11-12T00:20:38.329Z,9.25
2022-11-12T00:23:05.857Z,9.15
2022-11-12T00:25:33.622Z,7.88
2022-11-12T00:28:04.615Z,8.73
2022-11-12T00:30:32.121Z,11.95
2022-11-12T00:33:02.500Z,6.47
2022-11-12T00:35:31.953Z,11.77
2022-11-12T00:38:00.483Z,8.85
2022-11-12T00:40:28.200Z,8.20
2022-11-12T00:42:55.628Z,11.60
2022-11-12T00:45:23.084Z,11.18
2022-11-12T00:47:50.593Z,8.65
2022-11-12T00:50:18.163Z,9.38
2022-11-12T00:52:47.001Z,11.85
2022-11-12T00:55:14.514Z,12.05
2022-11-12T00:57:42.007Z,10.63
2022-11-12T01:00:10.179Z,9.13
2022-11-12T01:02:43.264Z,10.82
2022-11-12T01:05:12.831Z,8.38
2022-11-12T01:07:41.400Z,11.20
2022-11-12T01:10:11.429Z,12.07
2022-11-12T01:12:38.949Z,10.40
2022-11-12T01:15:07.102Z,12.20
2022-11-12T01:17:34.847Z,8.93
2022-11-12T01:20:02.321Z,10.90
2022-11-12T01:22:29.836Z,11.73
2022-11-12T01:24:57.285Z,12.05
2022-11-12T01:27:26.191Z,11.13
2022-11-12T01:29:53.712Z,10.05
2022-11-12T01:32:21.254Z,10.30
2022-11-12T01:34:48.729Z,11.88
2022-11-12T01:37:16.269Z,13.43
2022-11-12T01:39:43.746Z,12.75
2022-11-12T01:42:11.386Z,9.80
2022-11-12T01:44:43.305Z,10.55
2022-11-12T01:47:14.369Z,12.52
2022-11-12T01:49:50.583Z,14.95
2022-11-12T01:52:22.418Z,9.57
2022-11-12T01:54:51.020Z,9.88
2022-11-12T01:57:19.931Z,11.65
2022-11-12T01:59:50.407Z,11.45
2022-11-12T02:02:18.384Z,10.55
2022-11-12T02:04:46.656Z,10.88
2022-11-12T02:07:14.365Z,10.43
2022-11-12T02:09:42.473Z,11.38
2022-11-12T02:12:29.948Z,10.93
2022-11-12T02:14:57.822Z,7.75
2022-11-12T02:17:25.351Z,14.52
2022-11-12T02:19:53.172Z,8.70
2022-11-12T02:22:22.231Z,11.77
2022-11-12T02:24:49.701Z,10.38
2022-11-12T02:27:17.143Z,9.10
2022-11-12T02:29:47.160Z,10.63
2022-11-12T02:32:14.867Z,12.70
2022-11-12T02:34:42.306Z,9.65
2022-11-12T02:37:09.828Z,9.68
2022-11-12T02:39:38.653Z,8.13
2022-11-12T02:42:06.190Z,8.40
2022-11-12T02:44:33.822Z,9.40
2022-11-12T02:47:01.338Z,7.95
2022-11-12T02:49:28.753Z,9.98
2022-11-12T02:51:56.276Z,10.52
2022-11-12T02:54:23.821Z,9.50
2022-11-12T02:56:52.625Z,8.70
2022-11-12T02:59:20.199Z,6.75
2022-11-12T03:01:47.693Z,8.10
2022-11-12T03:04:15.134Z,10.63
2022-11-12T03:06:42.687Z,7.70
2022-11-12T03:09:11.786Z,7.68
2022-11-12T03:11:39.298Z,9.40
2022-11-12T03:14:08.195Z,9.63
2022-11-12T03:16:35.680Z,8.80
2022-11-12T03:19:03.168Z,8.05
2022-11-12T03:21:30.591Z,7.60
2022-11-12T03:23:58.076Z,6.95
2022-11-12T03:26:25.570Z,9.38
2022-11-12T03:28:53.126Z,8.10
2022-11-12T03:31:22.426Z,7.90
2022-11-12T03:33:49.858Z,7.40
2022-11-12T03:36:17.362Z,6.07
2022-11-12T03:38:44.858Z,6.38
2022-11-12T03:41:12.339Z,6.38
2022-11-12T03:43:39.827Z,6.65
2022-11-12T03:46:07.281Z,8.48
2022-11-12T03:48:36.131Z,8.23
2022-11-12T03:51:03.669Z,6.82
2022-11-12T03:53:31.225Z,9.82
2022-11-12T03:55:58.699Z,6.10
2022-11-12T03:58:26.567Z,6.30
2022-11-12T04:00:54.262Z,5.82
2022-11-12T04:03:21.780Z,7.15
2022-11-12T04:06:07.836Z,7.95
2022-11-12T04:08:37.965Z,7.07
2022-11-12T04:11:06.642Z,8.05
2022-11-12T04:13:34.209Z,6.05
2022-11-12T04:16:20.550Z,9.38
2022-11-12T04:19:06.221Z,9.65
2022-11-12T04:21:52.497Z,7.45
2022-11-12T04:24:38.305Z,6.68
2022-11-12T04:27:06.392Z,6.28
2022-11-12T04:29:51.550Z,5.90
2022-11-12T04:32:19.198Z,5.40
2022-11-12T04:34:46.765Z,6.15
2022-11-12T04:37:17.841Z,7.57
2022-11-12T04:39:48.534Z,6.70
2022-11-12T04:42:33.262Z,7.85
2022-11-12T04:45:01.276Z,12.48
2022-11-12T04:47:30.411Z,20.67
2022-11-12T04:49:58.061Z,17.08
2022-11-12T04:52:27.137Z,22.20
2022-11-12T04:54:54.652Z,22.73
2022-11-12T04:57:23.623Z,13.93
2022-11-12T04:59:51.131Z,15.48
2022-11-12T05:02:18.852Z,19.40
2022-11-12T05:04:46.331Z,13.43
2022-11-12T05:07:14.016Z,12.70
2022-11-12T05:09:42.873Z,16.83
2022-11-12T05:12:10.981Z,14.75
2022-11-12T05:14:38.482Z,12.35
2022-11-12T05:17:06.714Z,9.23
2022-11-12T05:19:35.055Z,14.57
2022-11-12T05:22:17.437Z,14.23
2022-11-12T05:24:56.242Z,13.43
2022-11-12T05:27:23.785Z,15.18
2022-11-12T05:29:51.296Z,13.60
2022-11-12T05:32:19.436Z,11.52
2022-11-12T05:34:46.943Z,13.45
2022-11-12T05:37:14.915Z,14.52
2022-11-12T05:39:42.411Z,14.63
2022-11-12T05:42:13.343Z,14.13
2022-11-12T05:44:41.759Z,16.10
2022-11-12T05:47:09.318Z,14.93
2022-11-12T05:49:36.778Z,13.93
2022-11-12T05:52:04.379Z,11.13
2022-11-12T05:54:31.879Z,13.63
2022-11-12T05:56:59.382Z,11.70
2022-11-12T05:59:28.240Z,10.15
2022-11-12T06:01:55.785Z,13.70
2022-11-12T06:04:23.290Z,14.70
2022-11-12T06:06:50.822Z,11.70
2022-11-12T06:09:18.286Z,15.45
2022-11-12T06:11:45.770Z,13.00
2022-11-12T06:14:13.311Z,15.38
2022-11-12T06:16:42.175Z,14.57
2022-11-12T06:19:09.764Z,15.10
2022-11-12T06:21:37.257Z,9.80
2022-11-12T06:24:05.265Z,8.63
2022-11-12T06:26:32.786Z,11.38
2022-11-12T06:29:00.262Z,9.48
2022-11-12T06:31:27.758Z,9.55
2022-11-12T06:33:56.691Z,8.45
2022-11-12T06:36:24.514Z,8.55
2022-11-12T06:38:51.970Z,10.65
2022-11-12T06:41:19.431Z,11.38
2022-11-12T06:43:46.914Z,10.60
2022-11-12T06:46:15.370Z,11.57
2022-11-12T06:48:43.098Z,9.40
2022-11-12T06:51:13.457Z,7.53
2022-11-12T06:53:40.886Z,10.52
2022-11-12T06:56:08.796Z,9.35
2022-11-12T06:58:36.682Z,10.73
2022-11-12T07:01:11.494Z,10.30
2022-11-12T07:03:39.805Z,10.02
2022-11-12T07:06:08.540Z,9.52
2022-11-12T07:08:37.465Z,12.02
2022-11-12T07:11:05.496Z,16.75
2022-11-12T07:13:33.698Z,10.18
2022-11-12T07:16:01.699Z,10.65
2022-11-12T07:18:29.857Z,12.18
2022-11-12T07:21:00.897Z,9.40
2022-11-12T07:23:28.528Z,8.60
2022-11-12T07:25:58.086Z,8.95
2022-11-12T07:28:25.967Z,13.52
2022-11-12T07:30:57.846Z,11.55
2022-11-12T07:33:25.737Z,12.95
2022-11-12T07:35:59.920Z,15.57
2022-11-12T07:38:28.457Z,15.15
2022-11-12T07:41:01.332Z,14.85
2022-11-12T07:43:29.058Z,17.75
2022-11-12T07:45:58.788Z,14.02
2022-11-12T07:48:26.595Z,15.07
2022-11-12T07:50:59.952Z,15.70
2022-11-12T07:53:27.434Z,15.70
2022-11-12T07:55:55.832Z,13.32
2022-11-12T07:58:25.055Z,17.65
2022-11-12T08:00:53.561Z,13.68
2022-11-12T08:03:21.120Z,13.15
2022-11-12T08:05:48.737Z,13.02
2022-11-12T08:08:16.257Z,14.90
2022-11-12T08:10:43.762Z,11.00
2022-11-12T08:13:11.557Z,12.27
2022-11-12T08:15:40.442Z,12.43
2022-11-12T08:18:07.979Z,9.32
2022-11-12T08:20:35.478Z,11.50
2022-11-12T08:23:03.008Z,10.38
2022-11-12T08:25:30.485Z,9.40
2022-11-12T08:27:58.986Z,10.18
2022-11-12T08:30:26.981Z,12.95
2022-11-12T08:33:00.009Z,12.20
2022-11-12T08:35:28.118Z,14.73
2022-11-12T08:37:58.517Z,20.10
2022-11-12T08:40:26.289Z,13.27
2022-11-12T08:42:57.963Z,16.38
2022-11-12T08:45:25.592Z,12.25
2022-11-12T08:47:53.059Z,11.98
2022-11-12T08:50:21.962Z,10.77
2022-11-12T08:52:49.590Z,12.45
2022-11-12T08:55:17.049Z,15.32
2022-11-12T08:57:44.878Z,11.30
2022-11-12T09:00:13.528Z,11.57
2022-11-12T09:02:41.042Z,16.52
2022-11-12T09:05:08.939Z,13.43
2022-11-12T09:07:53.286Z,12.75
2022-11-12T09:10:20.795Z,12.23
2022-11-12T09:12:51.422Z,14.40
2022-11-12T09:18:07.950Z,12.68
2022-11-12T09:20:35.444Z,11.88
2022-11-12T09:23:05.423Z,13.02
2022-11-12T09:25:32.998Z,11.50
2022-11-12T09:28:06.506Z,11.27
2022-11-12T09:30:34.019Z,10.55
2022-11-12T09:33:01.495Z,12.65
2022-11-12T09:35:28.990Z,15.77
2022-11-12T09:37:56.509Z,13.00
2022-11-12T09:40:27.501Z,15.52
2022-11-12T09:45:24.871Z,12.25
2022-11-12T09:47:55.005Z,15.57
2022-11-12T09:50:25.736Z,14.25
2022-11-12T09:52:57.482Z,12.98
2022-11-12T09:55:29.881Z,13.65
2022-11-12T09:57:57.500Z,13.02
2022-11-12T10:00:24.997Z,15.52
2022-11-12T10:02:54.904Z,14.98
2022-11-12T10:05:24.848Z,16.77
2022-11-12T10:07:57.306Z,17.55
2022-11-12T10:10:31.345Z,15.43
2022-11-12T10:13:07.989Z,15.23
2022-11-12T10:15:58.008Z,18.98
2022-11-12T10:18:30.660Z,14.77
2022-11-12T10:21:00.153Z,14.05
2022-11-12T10:23:29.208Z,16.40
2022-11-12T10:25:59.058Z,14.00
2022-11-12T10:28:34.248Z,15.80
2022-11-12T10:31:09.028Z,14.63
2022-11-12T10:33:36.536Z,16.33
2022-11-12T10:36:25.741Z,15.98
2022-11-12T10:38:54.456Z,14.10
2022-11-12T10:41:24.988Z,13.75
2022-11-12T10:43:58.342Z,15.18
2022-11-12T10:46:27.816Z,15.40
2022-11-12T10:48:57.358Z,15.35
2022-11-12T10:51:26.907Z,11.90
2022-11-12T10:53:54.426Z,13.52
2022-11-12T10:56:30.874Z,13.15
2022-11-12T10:59:10.196Z,13.60
2022-11-12T11:01:41.611Z,14.30
2022-11-12T11:04:23.561Z,12.07
2022-11-12T11:06:58.946Z,12.60
2022-11-12T11:09:27.091Z,9.23
2022-11-12T11:11:56.360Z,10.93
2022-11-12T11:14:28.368Z,9.23
2022-11-12T11:16:57.617Z,10.57
2022-11-12T11:19:29.711Z,9.48
2022-11-12T11:22:05.273Z,9.13
2022-11-12T11:24:37.554Z,10.48
2022-11-12T11:27:10.874Z,8.23
2022-11-12T11:29:43.121Z,9.23
2022-11-12T11:32:18.246Z,9.98
2022-11-12T11:34:50.502Z,6.95
2022-11-12T11:37:24.875Z,6.63
2022-11-12T11:39:55.775Z,8.95
2022-11-12T11:42:44.162Z,7.03
2022-11-12T11:45:16.974Z,7.57
2022-11-12T11:48:01.352Z,8.98
2022-11-12T11:50:30.476Z,9.77
2022-11-12T11:53:06.290Z,11.35
2022-11-12T11:55:38.013Z,8.15
2022-11-12T11:58:15.346Z,7.15
2022-11-12T12:00:47.040Z,8.63
2022-11-12T12:03:19.154Z,6.07
2022-11-12T12:05:51.463Z,7.20
2022-11-12T12:08:26.010Z,7.93
2022-11-12T12:11:08.658Z,9.52
2022-11-12T12:13:45.138Z,7.25
2022-11-12T12:16:30.534Z,10.15
2022-11-12T12:19:02.124Z,6.88
2022-11-12T12:21:31.883Z,7.15
2022-11-12T12:24:02.081Z,6.90
2022-11-12T12:26:34.256Z,11.35
2022-11-12T12:29:08.140Z,12.48
2022-11-12T12:31:37.426Z,11.43
2022-11-12T12:34:07.493Z,8.55
2022-11-12T12:36:36.562Z,8.75
2022-11-12T12:39:06.022Z,9.25
2022-11-12T12:41:38.280Z,9.52
2022-11-12T12:44:09.513Z,8.43
2022-11-12T12:46:40.441Z,12.68
2022-11-12T12:49:08.514Z,9.00
2022-11-12T12:51:36.085Z,11.95
2022-11-12T12:54:03.659Z,10.73
2022-11-12T12:56:44.706Z,9.57
2022-11-12T12:59:21.077Z,12.00
2022-11-12T13:01:55.488Z,10.85
2022-11-12T13:04:37.810Z,10.15
2022-11-12T13:07:09.917Z,7.65
2022-11-12T13:09:38.332Z,10.48
2022-11-12T13:12:24.070Z,7.60
2022-11-12T13:14:56.898Z,9.30
2022-11-12T13:17:39.203Z,10.68
2022-11-12T13:20:36.562Z,11.50
2022-11-12T13:23:04.718Z,8.65
2022-11-12T13:25:33.026Z,7.85
2022-11-12T13:28:10.906Z,9.30
2022-11-12T13:30:58.451Z,9.07
2022-11-12T13:33:29.592Z,9.40
2022-11-12T13:36:11.914Z,6.60
2022-11-12T13:38:39.698Z,8.25
2022-11-12T13:41:09.167Z,10.40
2022-11-12T13:43:38.289Z,11.63
2022-11-12T13:46:17.250Z,7.63
2022-11-12T13:48:47.401Z,7.53
2022-11-12T13:51:17.410Z,7.82
2022-11-12T13:53:45.205Z,8.75
2022-11-12T13:56:13.052Z,9.07
2022-11-12T13:58:40.820Z,9.38
2022-11-12T14:01:08.610Z,9.20
2022-11-12T14:03:42.143Z,9.77
2022-11-12T14:06:16.548Z,7.57
2022-11-12T14:08:59.338Z,11.52
2022-11-12T14:11:41.698Z,8.73
2022-11-12T14:14:13.471Z,8.07
2022-11-12T14:16:45.244Z,10.05
2022-11-12T14:19:31.845Z,9.48
2022-11-12T14:22:01.625Z,7.97
2022-11-12T14:24:29.285Z,8.20
2022-11-12T14:26:56.770Z,8.18
2022-11-12T14:29:24.304Z,14.07
2022-11-12T14:32:00.536Z,7.85
2022-11-12T14:34:28.733Z,9.43
2022-11-12T14:36:57.416Z,9.20
2022-11-12T14:39:28.097Z,8.70
2022-11-12T14:41:56.431Z,8.57
2022-11-12T14:44:24.774Z,13.82
2022-11-12T14:46:53.734Z,7.90
2022-11-12T14:49:23.756Z,11.82
2022-11-12T14:51:52.399Z,11.88
2022-11-12T14:54:24.414Z,9.77
2022-11-12T14:56:53.549Z,10.20
2022-11-12T14:59:21.243Z,10.77
2022-11-12T15:02:31.678Z,12.90
2022-11-12T15:04:55.775Z,10.70
2022-11-12T15:07:27.394Z,9.82
2022-11-12T15:09:55.017Z,10.82
2022-11-12T15:12:25.266Z,10.10
2022-11-12T15:14:53.186Z,10.40
2022-11-12T15:17:27.983Z,12.85
2022-11-12T15:20:01.216Z,12.27
2022-11-12T15:22:28.920Z,10.25
2022-11-12T15:24:56.504Z,12.10
2022-11-12T15:27:36.954Z,9.77
2022-11-12T15:30:18.014Z,9.63
2022-11-12T15:32:45.830Z,11.57
2022-11-12T15:35:32.949Z,15.27
2022-11-12T15:38:01.633Z,12.65
2022-11-12T15:40:29.588Z,14.90
2022-11-12T15:42:58.914Z,10.98
2022-11-12T15:45:26.386Z,16.02
2022-11-12T15:47:53.842Z,12.02
2022-11-12T15:50:22.677Z,14.27
2022-11-12T15:52:50.472Z,11.30
2022-11-12T15:55:18.753Z,15.52
2022-11-12T15:57:47.746Z,18.38
2022-11-12T16:00:18.062Z,16.20
2022-11-12T16:02:46.926Z,12.93
2022-11-12T16:05:14.962Z,16.58
2022-11-12T16:07:42.638Z,13.90
2022-11-12T16:10:13.938Z,17.27
2022-11-12T16:12:41.753Z,14.80
2022-11-12T16:15:13.394Z,15.98
2022-11-12T16:17:42.310Z,14.85
2022-11-12T16:20:13.739Z,17.05
2022-11-12T16:22:41.226Z,15.88
2022-11-12T16:25:08.919Z,14.77
2022-11-12T16:27:37.366Z,13.63
2022-11-12T16:30:05.348Z,14.05
2022-11-12T16:32:32.909Z,14.75
2022-11-12T16:35:01.778Z,16.27
2022-11-12T16:37:29.265Z,13.70
2022-11-12T16:39:56.779Z,19.23
2022-11-12T16:42:24.318Z,20.85
2022-11-12T16:44:51.757Z,18.17
2022-11-12T16:47:19.220Z,20.73
2022-11-12T16:49:46.725Z,23.73
2022-11-12T16:52:15.525Z,20.77
2022-11-12T16:54:42.967Z,17.20
2022-11-12T16:57:11.574Z,18.80
2022-11-12T16:59:39.005Z,19.38
2022-11-12T17:02:11.818Z,39.75
2022-11-12T17:04:39.289Z,24.27
2022-11-12T17:07:06.848Z,25.48
2022-11-12T17:09:35.822Z,23.20
2022-11-12T17:12:03.284Z,23.35
2022-11-12T17:14:30.767Z,23.95
2022-11-12T17:16:58.264Z,28.50
2022-11-12T17:19:25.902Z,21.40
2022-11-12T17:21:53.492Z,22.60
2022-11-12T17:24:20.991Z,23.65
2022-11-12T17:26:49.882Z,28.02
2022-11-12T17:29:17.694Z,26.42
2022-11-12T17:31:48.207Z,20.13
2022-11-12T17:34:15.874Z,22.58
2022-11-12T17:36:43.971Z,22.63
2022-11-12T17:39:12.347Z,18.33
2022-11-12T17:41:39.840Z,26.27
2022-11-12T17:44:08.671Z,22.38
2022-11-12T17:46:36.206Z,20.05
2022-11-12T17:49:03.852Z,23.83
2022-11-12T17:51:31.349Z,25.30
2022-11-12T17:53:58.810Z,22.33
2022-11-12T17:56:26.306Z,20.88
2022-11-12T17:58:53.853Z,28.60
2022-11-12T18:01:23.211Z,25.17
2022-11-12T18:03:51.945Z,26.65
2022-11-12T18:06:21.002Z,23.17
2022-11-12T18:08:48.961Z,22.67
2022-11-12T18:11:16.570Z,23.67
2022-11-12T18:13:44.170Z,24.52
2022-11-12T18:16:15.156Z,25.42
2022-11-12T18:18:44.026Z,24.98
2022-11-12T18:21:11.577Z,26.55
2022-11-12T18:23:39.781Z,27.00
2022-11-12T18:26:07.504Z,25.23
2022-11-12T18:28:35.252Z,22.25
2022-11-12T18:31:03.334Z,26.02
2022-11-12T18:33:31.402Z,23.08
2022-11-12T18:36:04.078Z,25.48
2022-11-12T18:38:32.967Z,26.23
2022-11-12T18:41:01.853Z,21.10
2022-11-12T18:43:29.775Z,22.98
2022-11-12T18:45:58.362Z,25.92
2022-11-12T18:48:26.105Z,24.95
2022-11-12T18:50:53.892Z,21.25
2022-11-12T18:53:22.843Z,23.85
2022-11-12T18:55:50.382Z,20.85
2022-11-12T18:58:17.859Z,24.95
2022-11-12T19:00:45.399Z,24.02
2022-11-12T19:03:12.857Z,24.85
2022-11-12T19:05:40.337Z,23.83
2022-11-12T19:08:08.036Z,25.08
2022-11-12T19:10:37.000Z,21.52
2022-11-12T19:13:05.184Z,25.67
2022-11-12T19:15:34.006Z,24.90
2022-11-12T19:18:01.761Z,25.42
2022-11-12T19:20:29.347Z,26.83
2022-11-12T19:22:56.868Z,25.88
2022-11-12T19:25:24.398Z,24.60
2022-11-12T19:27:54.282Z,27.63
2022-11-12T19:30:21.868Z,29.20
2022-11-12T19:32:49.321Z,28.88
2022-11-12T19:35:16.936Z,26.75
2022-11-12T19:37:44.425Z,28.83
2022-11-12T19:40:12.585Z,31.15
2022-11-12T19:42:40.165Z,29.92
2022-11-12T19:45:09.342Z,29.77
2022-11-12T19:47:36.931Z,32.25
2022-11-12T19:50:04.521Z,28.95
2022-11-12T19:52:32.053Z,35.85
2022-11-12T19:55:00.812Z,42.28
2022-11-12T19:57:29.100Z,38.70
2022-11-12T19:59:56.645Z,47.30
2022-11-12T20:02:25.511Z,59.08
2022-11-12T20:04:53.053Z,54.40
2022-11-12T20:07:20.540Z,51.88
2022-11-12T20:09:48.282Z,50.53
2022-11-12T20:12:15.708Z,52.97
2022-11-12T20:14:43.241Z,37.30
2022-11-12T20:17:10.683Z,43.72
2022-11-12T20:19:39.487Z,38.75
2022-11-12T20:22:06.976Z,43.92
2022-11-12T20:24:34.465Z,41.05
2022-11-12T20:27:01.991Z,37.95
2022-11-12T20:29:29.606Z,41.92
2022-11-12T20:31:57.122Z,39.35
2022-11-12T20:34:24.567Z,39.13
2022-11-12T20:36:54.938Z,36.83
2022-11-12T20:39:22.447Z,35.38
2022-11-12T20:41:49.969Z,32.80
2022-11-12T20:44:17.564Z,38.28
2022-11-12T20:46:45.975Z,35.17
2022-11-12T20:49:13.530Z,39.17
2022-11-12T20:51:41.067Z,36.55
2022-11-12T20:54:10.951Z,36.63
2022-11-12T20:56:38.501Z,39.20
2022-11-12T20:59:05.995Z,41.90
2022-11-12T21:01:33.848Z,36.92
2022-11-12T21:04:01.369Z,39.03
2022-11-12T21:06:29.431Z,41.00
2022-11-12T21:08:58.364Z,46.25
2022-11-12T21:11:27.303Z,35.83
2022-11-12T21:13:54.776Z,37.30
2022-11-12T21:16:22.302Z,42.13
2022-11-12T21:18:49.757Z,42.40
2022-11-12T21:21:18.398Z,40.53
2022-11-12T21:23:46.281Z,42.97
2022-11-12T21:26:14.487Z,42.05
2022-11-12T21:28:44.888Z,47.47
2022-11-12T21:31:13.142Z,46.67
2022-11-12T21:33:40.650Z,49.20
2022-11-12T21:36:13.203Z,48.22
2022-11-12T21:38:43.513Z,48.97
2022-11-12T21:41:12.363Z,47.55
2022-11-12T21:43:40.620Z,47.83
2022-11-12T21:46:09.976Z,42.58
2022-11-12T21:48:37.725Z,45.33
2022-11-12T21:51:06.189Z,45.13
2022-11-12T21:53:33.796Z,46.40
2022-11-12T21:56:04.510Z,49.88
2022-11-12T21:58:32.325Z,49.03
2022-11-12T22:01:06.828Z,42.90
2022-11-12T22:03:35.720Z,47.47
2022-11-12T22:06:03.458Z,46.65
2022-11-12T22:08:31.039Z,44.15
2022-11-12T22:11:01.916Z,45.47
2022-11-12T22:13:29.357Z,40.60
2022-11-12T22:15:56.966Z,43.38
2022-11-12T22:18:24.642Z,46.38
2022-11-12T22:21:00.189Z,44.58
2022-11-12T22:23:27.643Z,41.20
2022-11-12T22:25:58.135Z,42.55
2022-11-12T22:28:26.074Z,42.00
2022-11-12T22:30:54.199Z,42.03
2022-11-12T22:33:21.774Z,42.40
2022-11-12T22:35:49.245Z,40.92
2022-11-12T22:38:18.055Z,38.33
2022-11-12T22:40:45.624Z,36.83
2022-11-12T22:43:13.066Z,37.50
2022-11-12T22:45:40.506Z,34.92
2022-11-12T22:48:07.977Z,39.80
2022-11-12T22:50:35.544Z,38.33
2022-11-12T22:53:03.038Z,39.15
2022-11-12T22:55:31.890Z,36.28
2022-11-12T22:58:00.259Z,38.70
2022-11-12T23:00:29.597Z,35.78
2022-11-12T23:02:57.076Z,36.00
2022-11-12T23:05:24.635Z,37.08
2022-11-12T23:07:52.621Z,28.65
2022-11-12T23:10:20.133Z,32.65
2022-11-12T23:12:49.014Z,32.40
2022-11-12T23:15:16.533Z,30.85
2022-11-12T23:17:44.038Z,32.85
2022-11-12T23:20:11.913Z,30.25
2022-11-12T23:22:39.477Z,29.10
2022-11-12T23:25:07.661Z,29.15
2022-11-12T23:27:35.113Z,27.35
2022-11-12T23:30:04.595Z,29.15
2022-11-12T23:32:32.390Z,31.75
2022-11-12T23:34:59.861Z,34.05
2022-11-12T23:37:27.350Z,30.48
2022-11-12T23:39:54.856Z,27.88
2022-11-12T23:42:22.377Z,27.17
2022-11-12T23:44:49.872Z,26.77
2022-11-12T23:47:18.754Z,27.38
2022-11-12T23:49:46.307Z,28.95
2022-11-12T23:52:13.864Z,27.90
2022-11-12T23:54:41.329Z,25.00
2022-11-12T23:57:08.805Z,23.42
2022-11-12T23:59:36.356Z,24.42
